»·PEaware :: N1507D KSNA-KSNA

N1507D :: KSNA-KSNA

FLIGHT INFORMATION

Flight Status: Arrived
Operator: Privately registered:
United States
More flights under this callsign
Pilot: Oliver C. (20927)
Aircraft: CESSNA 172 SKYHAWK
(C172)
More flights by this aircraft type
Origin: KSNA John Wayne-Orange Co
United States
Destination: KSNA John Wayne-Orange Co
United States
More flights between these airports :: More routes between these airports
Route: SLI
File this flight plan on PilotEdge
Remarks: I-1 Rating
Altitude:
(Current/Filed)
3,000ft
Speed:
(Current/Filed)
100kts
Departed: 07-Nov-18 11:07 AM
Arrived: 07-Nov-18 11:45 AM
Distance/Time
Traveled:
0nm/0:38
Distance/Time
To Go:
Arrived

Flight Plot

Page will automatically refresh every two minutes.


Map Options




Map Legend


Flown Route
Filed Route
Departure Airport
Arrival Airport
Navaid (VOR, NDB)
Fix

Horizontal Profiles

Position Reports

Time Latitude Longitude Heading Altitude Ground
Speed
07-Nov-18 10:45 33.676080 -117.870909 219 60ft 0kts
07-Nov-18 10:46 33.676080 -117.870909 219 60ft 0kts
07-Nov-18 10:47 33.676080 -117.870909 219 60ft 0kts
07-Nov-18 10:48 33.676080 -117.870909 219 60ft 0kts
07-Nov-18 10:49 33.676080 -117.870909 219 60ft 0kts
07-Nov-18 10:50 33.676080 -117.870909 219 60ft 0kts
07-Nov-18 10:51 33.676080 -117.870909 219 60ft 0kts
07-Nov-18 10:52 33.676080 -117.870909 219 60ft 0kts
07-Nov-18 10:53 33.676080 -117.870909 220 60ft 0kts
07-Nov-18 10:54 33.676079 -117.870910 223 60ft 0kts
07-Nov-18 10:55 33.676079 -117.870910 223 60ft 0kts
07-Nov-18 10:56 33.676079 -117.870910 223 60ft 0kts
07-Nov-18 10:57 33.676079 -117.870910 223 60ft 0kts
07-Nov-18 10:58 33.676079 -117.870910 223 60ft 0kts
07-Nov-18 10:59 33.676079 -117.870910 223 60ft 0kts
07-Nov-18 11:00 33.676079 -117.870910 223 60ft 0kts
07-Nov-18 11:01 33.676079 -117.870910 223 60ft 0kts
07-Nov-18 11:02 33.676079 -117.870910 223 60ft 0kts
07-Nov-18 11:03 33.676079 -117.870910 223 60ft 0kts
07-Nov-18 11:04 33.676079 -117.870910 223 60ft 0kts
07-Nov-18 11:05 33.676079 -117.870910 223 60ft 0kts
07-Nov-18 11:06 33.676079 -117.870910 223 60ft 0kts
07-Nov-18 11:07 33.679794 -117.867866 21 60ft 25kts
07-Nov-18 11:08 33.681186 -117.866396 125 60ft 0kts
07-Nov-18 11:09 33.681186 -117.866396 125 60ft 0kts
07-Nov-18 11:10 33.679363 -117.866484 206 60ft 46kts
07-Nov-18 11:11 33.666052 -117.885783 246 720ft 92kts
07-Nov-18 11:12 33.655384 -117.915544 246 1526ft 100kts
07-Nov-18 11:13 33.644380 -117.946502 247 1958ft 125kts
07-Nov-18 11:14 33.630434 -117.985192 233 2175ft 120kts
07-Nov-18 11:15 33.613793 -118.014985 263 2665ft 114kts
07-Nov-18 11:16 33.605074 -118.052337 255 2967ft 126kts
07-Nov-18 11:17 33.595316 -118.093887 255 2972ft 130kts
07-Nov-18 11:18 33.568791 -118.116879 198 2974ft 133kts
07-Nov-18 11:19 33.534712 -118.130268 198 2975ft 133kts
07-Nov-18 11:20 33.504697 -118.138675 120 2975ft 134kts
07-Nov-18 11:21 33.525560 -118.114020 15 2974ft 129kts
07-Nov-18 11:22 33.559429 -118.100093 15 2973ft 129kts
07-Nov-18 11:23 33.595253 -118.100829 356 2973ft 129kts
07-Nov-18 11:24 33.631046 -118.103133 356 2973ft 129kts
07-Nov-18 11:25 33.666811 -118.105307 356 2973ft 129kts
07-Nov-18 11:26 33.702578 -118.107352 356 2973ft 129kts
07-Nov-18 11:27 33.738349 -118.109269 356 2973ft 129kts
07-Nov-18 11:28 33.772995 -118.110996 357 2973ft 129kts
07-Nov-18 11:29 33.808485 -118.111171 21 2968ft 129kts
07-Nov-18 11:30 33.821412 -118.071474 75 2972ft 132kts
07-Nov-18 11:31 33.832577 -118.029700 67 2972ft 131kts
07-Nov-18 11:32 33.844996 -117.990177 67 2972ft 124kts
07-Nov-18 11:33 33.861473 -117.954032 57 2972ft 123kts
07-Nov-18 11:34 33.882397 -117.922477 48 2972ft 123kts
07-Nov-18 11:35 33.902335 -117.893075 48 3389ft 106kts
07-Nov-18 11:36 33.905932 -117.856826 107 3205ft 137kts
07-Nov-18 11:37 33.894366 -117.813356 100 3048ft 125kts
07-Nov-18 11:38 33.885638 -117.771628 107 2946ft 128kts
07-Nov-18 11:39 33.866912 -117.740311 189 2945ft 124kts
07-Nov-18 11:40 33.840998 -117.765337 228 2947ft 122kts
07-Nov-18 11:41 33.813300 -117.788773 202 2871ft 121kts
07-Nov-18 11:42 33.783273 -117.797513 220 2321ft 106kts
07-Nov-18 11:43 33.761429 -117.814246 207 1799ft 81kts
07-Nov-18 11:44 33.740991 -117.826942 209 1358ft 88kts
07-Nov-18 11:45 33.720588 -117.841167 209 966ft 94kts
07-Nov-18 11:46 33.696950 -117.855382 210 370ft 93kts
07-Nov-18 11:47 33.678856 -117.866810 207 60ft 61kts
07-Nov-18 11:48 33.675928 -117.870032 233 60ft 8kts

Navigation Log

Ident Type
1. KSNA Airport
2. SLI Navaid
3. KSNA Airport